Time;durP1;ratioP1;P1;durP2;ratioP2;P2;SDS_P1;SDS_P2;PMS_P1;PMS_P2;Temp;Humidity;BMP_temperature;BMP_pressure;BME280_temperature;BME280_humidity;BME280_pressure;Samples;Min_cycle;Max_cycle;Signal;HPM_P1;HPM_P2
2021/10/25 00:00:09;;;;;;;15.80;7.80;;;;;;;2.69;100.00;99396.16;5050121;28;20375;-71
2021/10/25 00:02:34;;;;;;;15.05;8.55;;;;;;;2.49;100.00;99373.06;5050506;28;20025;-73
2021/10/25 00:04:59;;;;;;;13.93;7.57;;;;;;;2.57;100.00;99390.13;5051327;28;20025;-73
2021/10/25 00:07:24;;;;;;;16.92;7.90;;;;;;;2.40;100.00;99370.25;5052216;28;20390;-72
2021/10/25 00:09:50;;;;;;;17.10;8.45;;;;;;;2.29;100.00;99362.38;5051986;28;20017;-73
2021/10/25 00:12:15;;;;;;;15.15;7.57;;;;;;;2.20;100.00;99363.16;5050854;28;20041;-72
2021/10/25 00:14:41;;;;;;;14.15;8.18;;;;;;;2.28;100.00;99370.50;5051978;28;20052;-72
2021/10/25 00:17:06;;;;;;;12.82;7.75;;;;;;;2.10;100.00;99368.50;5049289;28;20036;-73
2021/10/25 00:19:31;;;;;;;14.80;7.70;;;;;;;2.09;100.00;99379.28;5044024;28;20025;-73
2021/10/25 00:21:57;;;;;;;12.68;6.90;;;;;;;2.01;100.00;99395.13;5048168;28;20436;-73
2021/10/25 00:24:22;;;;;;;11.40;6.97;;;;;;;1.90;100.00;99390.75;5046933;28;20048;-73
2021/10/25 00:26:48;;;;;;;12.38;6.70;;;;;;;1.61;100.00;99353.25;5051401;28;20482;-73
2021/10/25 00:29:13;;;;;;;10.85;7.28;;;;;;;1.74;100.00;99391.22;5050246;28;20112;-72
2021/10/25 00:31:38;;;;;;;13.45;7.03;;;;;;;1.79;100.00;99386.34;5043835;28;20099;-73
2021/10/25 00:34:04;;;;;;;12.68;7.18;;;;;;;1.73;100.00;99389.56;5043612;28;20068;-72
2021/10/25 00:36:30;;;;;;;17.05;7.57;;;;;;;1.59;100.00;99368.53;5055281;28;20036;-71
2021/10/25 00:38:56;;;;;;;12.82;7.38;;;;;;;1.62;100.00;99393.13;5057038;28;20025;-72
2021/10/25 00:41:21;;;;;;;13.95;7.38;;;;;;;1.62;100.00;99394.94;5057235;28;20039;-72
2021/10/25 00:43:46;;;;;;;15.55;7.85;;;;;;;1.49;100.00;99388.03;5054005;28;20071;-73
2021/10/25 00:46:12;;;;;;;12.27;7.10;;;;;;;1.59;100.00;99392.53;5055687;28;20138;-73
2021/10/25 00:48:38;;;;;;;16.75;8.10;;;;;;;1.46;100.00;99371.41;5057360;28;20029;-71
2021/10/25 00:51:05;;;;;;;12.45;7.50;;;;;;;1.53;100.00;99392.09;5056647;28;20021;-73
2021/10/25 00:53:31;;;;;;;14.77;7.72;;;;;;;1.49;100.00;99371.16;5054267;28;20044;-73
2021/10/25 00:55:58;;;;;;;14.70;8.52;;;;;;;1.36;100.00;99358.03;5037335;28;20445;-72
2021/10/25 00:58:23;;;;;;;16.63;8.07;;;;;;;1.64;100.00;99393.00;5038133;28;20032;-72
2021/10/25 01:00:49;;;;;;;13.68;8.00;;;;;;;1.64;100.00;99387.66;5057693;28;20382;-72
2021/10/25 01:03:14;;;;;;;14.02;8.23;;;;;;;1.54;100.00;99361.78;5040005;28;20508;-71
2021/10/25 01:05:40;;;;;;;19.50;8.57;;;;;;;1.57;100.00;99351.81;5055335;28;20039;-72
2021/10/25 01:08:05;;;;;;;20.40;9.07;;;;;;;1.66;100.00;99369.72;5038019;28;20036;-72
2021/10/25 01:10:31;;;;;;;15.45;9.32;;;;;;;1.72;100.00;99363.84;5040263;28;20021;-72
2021/10/25 01:12:57;;;;;;;16.92;7.78;;;;;;;1.85;100.00;99375.13;5057259;28;20048;-71
2021/10/25 01:15:23;;;;;;;13.80;7.70;;;;;;;1.86;100.00;99379.50;5041076;28;20140;-71
2021/10/25 01:17:53;;;;;;;18.05;8.85;;;;;;;1.91;100.00;99379.94;5038262;28;20029;-71
2021/10/25 01:20:18;;;;;;;14.32;8.32;;;;;;;1.85;100.00;99377.78;5038046;28;20109;-71
2021/10/25 01:22:44;;;;;;;14.85;8.30;;;;;;;1.75;100.00;99361.72;5054014;28;20111;-72
2021/10/25 01:25:09;;;;;;;14.20;7.35;;;;;;;1.70;100.00;99352.44;5056189;28;20446;-72
2021/10/25 01:27:34;;;;;;;14.48;7.40;;;;;;;1.73;100.00;99365.53;5044230;28;20059;-73
2021/10/25 01:30:00;;;;;;;13.25;7.53;;;;;;;1.74;100.00;99377.91;5036620;28;20014;-71
2021/10/25 01:32:25;;;;;;;15.05;8.25;;;;;;;1.71;100.00;99378.16;5046374;28;20029;-70
2021/10/25 01:34:51;;;;;;;12.48;7.07;;;;;;;1.63;100.00;99375.31;5057389;28;20021;-70
2021/10/25 01:37:16;;;;;;;12.32;6.97;;;;;;;1.53;100.00;99361.94;5045960;28;20032;-71
2021/10/25 01:39:41;;;;;;;14.23;6.45;;;;;;;1.39;100.00;99346.25;5038947;28;20025;-71
2021/10/25 01:42:07;;;;;;;10.80;6.50;;;;;;;1.51;100.00;99377.19;5048816;28;20024;-70
2021/10/25 01:44:34;;;;;;;12.00;7.38;;;;;;;1.38;100.00;99356.06;5054800;28;20482;-70
2021/10/25 01:47:00;;;;;;;12.13;6.88;;;;;;;1.40;100.00;99337.28;5053421;28;20025;-73
2021/10/25 01:49:26;;;;;;;15.77;7.80;;;;;;;1.58;100.00;99361.53;5076386;22;20053;-67
2021/10/25 01:51:51;;;;;;;15.50;6.78;;;;;;;1.60;100.00;99363.09;5039996;28;20037;-67
2021/10/25 01:54:16;;;;;;;13.45;7.35;;;;;;;1.68;100.00;99354.44;5042915;28;20044;-67
2021/10/25 01:56:42;;;;;;;15.68;7.82;;;;;;;1.71;100.00;99356.81;5052158;28;20142;-66
2021/10/25 01:59:08;;;;;;;10.73;7.10;;;;;;;1.69;100.00;99353.44;5024036;28;20084;-67
2021/10/25 02:01:33;;;;;;;12.18;7.13;;;;;;;1.61;100.00;99350.59;5003591;28;20580;-67
2021/10/25 02:03:59;;;;;;;16.83;6.78;;;;;;;1.61;100.00;99371.94;5028892;28;20030;-67
2021/10/25 02:06:24;;;;;;;11.93;6.65;;;;;;;1.57;100.00;99359.81;5017208;28;20037;-67
2021/10/25 02:08:50;;;;;;;9.93;6.15;;;;;;;1.46;100.00;99363.41;5010123;28;20104;-67
2021/10/25 02:11:16;;;;;;;11.20;6.65;;;;;;;1.48;100.00;99346.31;5020889;28;20376;-67
2021/10/25 02:13:43;;;;;;;10.80;5.93;;;;;;;1.45;100.00;99351.06;5030165;28;20040;-67
2021/10/25 02:16:09;;;;;;;8.75;5.57;;;;;;;1.36;100.00;99355.34;5015292;28;20034;-67
2021/10/25 02:18:34;;;;;;;14.50;7.03;;;;;;;1.25;100.00;99342.94;5003443;28;20060;-67
2021/10/25 02:21:00;;;;;;;15.25;6.78;;;;;;;1.29;100.00;99356.88;4996184;28;20373;-68
2021/10/25 02:23:26;;;;;;;12.35;6.68;;;;;;;1.27;100.00;99350.81;5021874;28;20038;-67
2021/10/25 02:25:53;;;;;;;10.80;6.28;;;;;;;1.27;100.00;99342.81;5015700;28;20033;-67
2021/10/25 02:28:19;;;;;;;10.27;6.35;;;;;;;1.11;100.00;99332.63;5030630;28;20478;-67
2021/10/25 02:30:44;;;;;;;10.85;6.10;;;;;;;1.05;100.00;99342.00;5018104;28;20026;-66
2021/10/25 02:33:09;;;;;;;11.18;6.28;;;;;;;1.18;100.00;99346.25;5033487;28;20175;-67
2021/10/25 02:35:35;;;;;;;14.75;6.70;;;;;;;1.12;100.00;99333.47;5004639;28;20045;-65
2021/10/25 02:38:00;;;;;;;10.00;6.35;;;;;;;1.19;100.00;99350.63;5014330;28;20037;-67
2021/10/25 02:40:28;;;;;;;14.07;6.32;;;;;;;1.18;100.00;99343.59;5016972;28;20033;-66
2021/10/25 02:42:54;;;;;;;13.10;6.95;;;;;;;1.40;100.00;99335.47;5034530;28;20030;-66
2021/10/25 02:45:20;;;;;;;11.20;7.10;;;;;;;1.45;100.00;99333.25;5017030;28;20027;-66
2021/10/25 02:47:46;;;;;;;16.05;7.15;;;;;;;1.48;100.00;99335.66;5032114;28;20033;-67
2021/10/25 02:50:11;;;;;;;11.30;6.38;;;;;;;1.43;100.00;99327.19;5008988;28;20068;-66
2021/10/25 02:52:37;;;;;;;11.27;6.85;;;;;;;1.48;100.00;99322.31;5014567;28;20034;-68
2021/10/25 02:55:04;;;;;;;11.35;6.53;;;;;;;1.38;100.00;99321.41;5011719;28;20033;-66
2021/10/25 02:57:29;;;;;;;12.00;6.30;;;;;;;1.28;100.00;99315.19;5007659;28;20030;-66
2021/10/25 02:59:54;;;;;;;9.85;6.03;;;;;;;1.22;100.00;99315.72;5024986;28;20398;-66
2021/10/25 03:02:19;;;;;;;16.33;6.30;;;;;;;1.14;100.00;99316.38;5034271;28;20033;-66
2021/10/25 03:04:45;;;;;;;13.73;6.63;;;;;;;1.13;100.00;99319.16;5016796;28;20068;-66
2021/10/25 03:07:10;;;;;;;11.57;6.28;;;;;;;1.14;100.00;99299.53;4998803;28;20495;-66
2021/10/25 03:09:35;;;;;;;9.90;6.40;;;;;;;1.19;100.00;99323.97;5002304;28;20057;-66
2021/10/25 03:12:01;;;;;;;12.55;7.43;;;;;;;1.17;100.00;99325.94;5019215;28;20091;-67
2021/10/25 03:14:26;;;;;;;16.23;7.85;;;;;;;1.13;100.00;99327.16;5036609;28;20030;-67
2021/10/25 03:16:52;;;;;;;12.68;7.07;;;;;;;1.17;100.00;99323.25;5037455;28;20018;-67
2021/10/25 03:19:17;;;;;;;13.30;7.47;;;;;;;1.12;100.00;99330.81;5038883;28;20063;-67
2021/10/25 03:21:43;;;;;;;13.68;7.40;;;;;;;1.02;100.00;99317.41;5043325;28;20018;-74
2021/10/25 03:24:12;;;;;;;18.05;8.30;;;;;;;0.95;100.00;99319.75;5032513;28;20026;-79
2021/10/25 03:26:38;;;;;;;14.55;8.27;;;;;;;0.84;100.00;99315.34;5051605;28;20002;-80
2021/10/25 03:29:03;;;;;;;19.08;8.85;;;;;;;1.04;100.00;99310.13;5015386;28;20054;-78
2021/10/25 03:31:54;;;;;;;15.48;8.30;;;;;;;1.24;100.00;99333.28;4994159;28;20014;-78
2021/10/25 03:34:19;;;;;;;15.13;7.78;;;;;;;1.11;100.00;99313.97;4994284;28;20041;-81
2021/10/25 03:36:48;;;;;;;18.73;8.82;;;;;;;1.05;100.00;99327.81;5005999;28;20086;-75
2021/10/25 03:39:15;;;;;;;13.82;7.57;;;;;;;1.12;100.00;99320.13;4993392;28;20607;-77
2021/10/25 03:41:45;;;;;;;16.40;7.28;;;;;;;1.18;100.00;99325.81;4994357;28;20138;-79
2021/10/25 03:44:16;;;;;;;17.05;7.50;;;;;;;0.88;100.00;99283.94;5004958;28;20433;-75
2021/10/25 03:47:03;;;;;;;11.57;7.03;;;;;;;1.14;100.00;99320.88;5013814;28;20446;-75
2021/10/25 03:49:41;;;;;;;16.02;7.15;;;;;;;1.09;100.00;99313.25;5010510;28;20029;-73
2021/10/25 03:52:19;;;;;;;11.30;6.38;;;;;;;1.15;100.00;99326.03;4993389;28;20058;-72
2021/10/25 03:54:50;;;;;;;17.27;6.70;;;;;;;1.03;100.00;99322.63;4999914;28;20487;-73
2021/10/25 04:13:52;;;;;;;12.38;6.60;;;;;;;0.39;100.00;99307.53;5009110;28;20117;-73
2021/10/25 04:27:42;;;;;;;11.73;6.63;;;;;;;0.64;100.00;99309.00;5019988;28;20123;-73
2021/10/25 04:30:08;;;;;;;13.82;7.22;;;;;;;0.54;100.00;99305.41;5033998;28;20033;-70
2021/10/25 04:32:33;;;;;;;13.05;7.07;;;;;;;0.63;100.00;99323.31;5029863;28;20033;-76
2021/10/25 04:34:59;;;;;;;11.75;6.68;;;;;;;0.55;100.00;99300.94;5027861;28;20030;-71
2021/10/25 04:37:25;;;;;;;9.85;5.70;;;;;;;0.57;100.00;99321.13;5027309;28;20018;-77
2021/10/25 04:39:50;;;;;;;12.98;7.38;;;;;;;0.79;100.00;99300.72;5012912;28;20080;-72
2021/10/25 04:42:20;;;;;;;16.15;7.65;;;;;;;0.74;100.00;99311.75;5041397;28;20030;-73
2021/10/25 04:44:46;;;;;;;;;;;;;;;0.83;100.00;99320.78;5028688;28;20119;-76
2021/10/25 04:47:11;;;;;;;18.88;8.60;;;;;;;0.70;100.00;99322.78;5019958;28;19902;-71
2021/10/25 04:49:36;;;;;;;13.63;8.48;;;;;;;0.71;100.00;99335.13;5028838;28;20018;-75
2021/10/25 04:52:03;;;;;;;14.02;7.88;;;;;;;0.68;100.00;99322.06;5020720;28;20044;-75
2021/10/25 04:54:41;;;;;;;14.02;7.45;;;;;;;0.63;100.00;99307.31;5019433;28;20082;-79
2021/10/25 04:57:07;;;;;;;16.63;8.38;;;;;;;0.65;100.00;99320.50;5010851;28;20029;-76
2021/10/25 04:59:33;;;;;;;15.98;8.70;;;;;;;0.48;100.00;99308.59;5003642;28;20479;-75
2021/10/25 05:01:58;;;;;;;18.98;10.05;;;;;;;0.58;100.00;99322.00;5007075;28;20025;-68
2021/10/25 05:04:24;;;;;;;21.58;10.45;;;;;;;0.58;100.00;99309.53;5012233;28;20037;-68
2021/10/25 05:06:49;;;;;;;17.00;9.20;;;;;;;0.50;100.00;99306.66;4997463;28;20109;-68
2021/10/25 05:09:15;;;;;;;17.95;9.23;;;;;;;0.64;100.00;99324.16;4998532;28;20034;-66
2021/10/25 05:11:40;;;;;;;17.60;8.93;;;;;;;0.61;100.00;99319.91;5003202;28;20397;-67
2021/10/25 05:14:07;;;;;;;16.95;9.13;;;;;;;0.42;100.00;99312.63;5005453;28;20037;-67
2021/10/25 05:16:32;;;;;;;18.00;10.35;;;;;;;0.47;100.00;99322.84;5001104;28;20034;-67
2021/10/25 05:18:58;;;;;;;17.63;9.10;;;;;;;0.42;100.00;99325.91;5013093;28;22777;-76
2021/10/25 05:21:23;;;;;;;16.40;8.68;;;;;;;0.39;100.00;99341.28;5011089;28;20023;-74
2021/10/25 05:23:49;;;;;;;17.08;8.32;;;;;;;0.31;100.00;99311.78;5025286;28;20033;-74
2021/10/25 05:26:14;;;;;;;14.10;8.02;;;;;;;0.32;100.00;99329.47;5016791;28;20057;-76
2021/10/25 05:28:40;;;;;;;16.27;8.70;;;;;;;0.25;100.00;99314.97;5001327;28;20468;-74
2021/10/25 05:31:06;;;;;;;12.70;7.45;;;;;;;0.30;100.00;99334.06;5007193;28;20025;-72
2021/10/25 05:33:32;;;;;;;18.83;8.90;;;;;;;0.28;100.00;99328.00;5011720;28;20022;-75
2021/10/25 05:35:57;;;;;;;14.18;7.75;;;;;;;0.34;100.00;99330.16;5038221;28;20031;-74
2021/10/25 05:38:22;;;;;;;19.58;8.50;;;;;;;0.26;100.00;99313.97;5048432;28;20022;-77
2021/10/25 05:40:48;;;;;;;17.25;8.25;;;;;;;0.34;100.00;99316.84;5027329;28;20033;-79
2021/10/25 05:43:13;;;;;;;16.80;8.50;;;;;;;0.39;100.00;99319.97;5027451;28;20041;-77
2021/10/25 05:45:39;;;;;;;16.30;8.88;;;;;;;0.49;100.00;99323.59;5020109;28;20479;-73
2021/10/25 05:48:04;;;;;;;14.25;7.78;;;;;;;0.46;100.00;99315.84;5036001;28;20030;-70
2021/10/25 05:50:31;;;;;;;16.80;8.25;;;;;;;0.65;100.00;99309.84;5035672;28;20048;-74
2021/10/25 05:52:57;;;;;;;15.65;8.13;;;;;;;0.84;100.00;99304.69;5035007;28;20060;-69
2021/10/25 05:55:24;;;;;;;14.60;8.02;;;;;;;0.83;100.00;99310.97;5034378;28;20026;-66
2021/10/25 05:57:52;;;;;;;13.13;8.38;;;;;;;0.78;100.00;99296.34;5032798;28;20030;-72
2021/10/25 06:00:21;;;;;;;13.30;7.82;;;;;;;0.62;100.00;99284.31;5029449;28;20018;-73
2021/10/25 06:02:53;;;;;;;11.00;7.32;;;;;;;0.49;100.00;99294.28;5035002;28;20033;-75
2021/10/25 06:05:20;;;;;;;16.95;7.97;;;;;;;0.40;100.00;99316.38;5027082;28;20078;-71
2021/10/25 06:07:46;;;;;;;17.75;8.25;;;;;;;0.49;100.00;99312.94;5034144;28;20053;-72
2021/10/25 06:10:13;;;;;;;15.10;8.65;;;;;;;0.59;100.00;99321.84;5019034;28;20044;-71
2021/10/25 06:12:42;;;;;;;14.32;7.90;;;;;;;0.58;100.00;99314.84;5012598;28;20518;-71
2021/10/25 06:15:11;;;;;;;16.80;8.20;;;;;;;0.58;100.00;99304.19;5024824;28;20029;-71
2021/10/25 06:17:50;;;;;;;;;;;;;;;0.73;100.00;99317.19;5016983;28;20097;-71
2021/10/25 06:20:17;;;;;;;;;;;;;;;0.69;100.00;99321.94;5005357;28;19925;-71
2021/10/25 06:22:43;;;;;;;17.85;8.52;;;;;;;0.67;100.00;99307.06;5002655;28;19960;-71
2021/10/25 06:25:12;;;;;;;14.63;8.63;;;;;;;0.98;100.00;99311.50;5004457;28;20033;-75
2021/10/25 06:27:37;;;;;;;15.95;8.65;;;;;;;1.10;100.00;99314.94;5010271;28;21377;-71
2021/10/25 06:30:04;;;;;;;13.40;8.60;;;;;;;1.16;100.00;99324.25;5005866;28;20034;-71
2021/10/25 06:32:30;;;;;;;12.73;8.27;;;;;;;1.34;100.00;99319.13;5006358;28;20105;-71
2021/10/25 06:34:57;;;;;;;14.77;7.93;;;;;;;1.49;100.00;99317.81;5006883;28;20559;-71
2021/10/25 06:37:27;;;;;;;14.80;8.38;;;;;;;1.64;99.84;99321.00;5008374;28;20030;-70
2021/10/25 06:39:54;;;;;;;;;;;;;;;1.79;97.67;99333.00;5004136;28;20062;-71
2021/10/25 06:42:20;;;;;;;15.43;7.97;;;;;;;2.36;98.77;99315.44;5002610;28;19917;-75
2021/10/25 06:47:13;;;;;;;13.60;6.95;;;;;;;4.58;83.01;99324.78;5001549;28;20084;-74
2021/10/25 06:49:39;;;;;;;11.85;7.55;;;;;;;5.14;82.14;99320.09;5014232;28;20022;-71
2021/10/25 06:52:04;;;;;;;20.20;9.07;;;;;;;4.56;77.52;99332.16;5004608;28;20029;-75
2021/10/25 06:54:29;;;;;;;21.48;12.85;;;;;;;5.16;78.00;99334.19;5005589;28;20369;-71
2021/10/25 06:56:55;;;;;;;21.13;11.32;;;;;;;5.13;77.08;99316.56;5014732;28;20044;-71
2021/10/25 06:59:20;;;;;;;13.10;8.25;;;;;;;5.15;76.52;99343.25;5013229;28;20037;-71
2021/10/25 07:01:46;;;;;;;10.45;6.40;;;;;;;4.92;76.83;99350.91;5001209;28;20112;-71
2021/10/25 07:04:11;;;;;;;17.20;7.95;;;;;;;4.63;80.23;99343.09;5004087;28;20055;-71
2021/10/25 07:06:37;;;;;;;13.73;6.55;;;;;;;4.58;78.85;99359.63;5009019;28;20018;-71
2021/10/25 07:09:05;;;;;;;15.18;7.32;;;;;;;4.28;80.53;99336.69;5003348;28;20098;-71
2021/10/25 07:11:31;;;;;;;10.50;6.43;;;;;;;4.16;80.84;99339.56;5005340;28;20027;-74
2021/10/25 07:13:56;;;;;;;18.38;7.93;;;;;;;3.89;81.15;99331.53;5002052;28;20040;-73
2021/10/25 07:16:27;;;;;;;16.67;7.57;;;;;;;3.83;82.87;99332.97;5009833;28;20149;-71
2021/10/25 08:09:58;;;;;;;9.63;5.70;;;;;;;14.58;47.90;99303.91;5025900;28;20079;-70
2021/10/25 08:12:26;;;;;;;11.00;6.28;;;;;;;17.26;42.25;99306.44;5030959;28;20483;-70
2021/10/25 08:15:05;;;;;;;9.37;6.60;;;;;;;17.22;41.52;99308.00;5026109;28;20374;-70
2021/10/25 08:17:47;;;;;;;11.07;6.65;;;;;;;17.14;40.57;99300.97;5014300;28;20625;-74
2021/10/25 08:20:13;;;;;;;10.85;6.35;;;;;;;15.04;44.29;99293.81;5016554;28;20029;-75
2021/10/25 08:22:40;;;;;;;7.82;5.97;;;;;;;14.81;46.89;99291.66;5026568;28;20017;-74
2021/10/25 08:25:07;;;;;;;9.05;5.75;;;;;;;15.60;44.02;99295.66;5031964;28;20105;-74
2021/10/25 08:27:33;;;;;;;11.70;6.30;;;;;;;14.96;45.64;99267.66;5031945;28;20472;-74
2021/10/25 08:29:59;;;;;;;13.10;5.90;;;;;;;16.58;44.42;99288.47;5031258;28;20025;-74
2021/10/25 08:32:44;;;;;;;11.07;5.82;;;;;;;18.65;39.19;99256.44;5031900;28;20033;-75
2021/10/25 08:40:30;;;;;;;10.18;5.50;;;;;;;17.09;42.30;99298.94;5030820;28;20032;-74
2021/10/25 08:42:56;;;;;;;7.45;5.43;;;;;;;16.03;46.50;99294.00;5033690;28;20029;-70
2021/10/25 08:45:32;;;;;;;9.30;5.68;;;;;;;15.42;47.25;99268.34;5038452;28;20042;-70
2021/10/25 08:47:59;;;;;;;9.10;5.18;;;;;;;15.03;49.15;99281.22;5017287;28;20033;-69
2021/10/25 08:50:32;;;;;;;9.15;5.05;;;;;;;15.09;49.01;99289.38;5019837;28;20025;-69
2021/10/25 08:52:58;;;;;;;7.97;5.15;;;;;;;13.77;52.50;99272.56;5031384;28;20033;-76
2021/10/25 08:55:24;;;;;;;9.93;5.70;;;;;;;13.79;52.65;99289.50;5034617;28;20040;-78
2021/10/25 08:57:50;;;;;;;9.18;5.72;;;;;;;12.57;56.83;99271.66;5026654;28;20479;-68
2021/10/25 09:00:18;;;;;;;9.82;6.22;;;;;;;12.58;57.72;99299.66;5033000;28;20431;-67
2021/10/25 09:02:55;;;;;;;14.82;6.80;;;;;;;12.48;57.95;99300.03;5026356;28;20109;-67
2021/10/25 09:05:22;;;;;;;10.32;5.53;;;;;;;12.66;57.05;99302.19;5022250;28;20490;-67
2021/10/25 09:07:53;;;;;;;7.57;5.25;;;;;;;12.62;58.11;99298.19;5034611;28;20072;-67
2021/10/25 09:10:29;;;;;;;10.98;6.10;;;;;;;12.09;60.02;99300.69;5031285;28;20074;-67
2021/10/25 09:13:04;;;;;;;7.90;5.45;;;;;;;12.60;58.25;99295.69;5032635;28;20057;-67
2021/10/25 09:15:32;;;;;;;16.65;5.80;;;;;;;13.17;57.18;99293.47;5020364;28;20422;-67
2021/10/25 09:18:09;;;;;;;11.63;5.57;;;;;;;13.09;57.57;99294.50;5033804;28;20025;-69
2021/10/25 09:20:58;;;;;;;9.05;5.32;;;;;;;13.62;56.55;99288.25;5030128;28;20192;-67
2021/10/25 09:23:26;;;;;;;10.07;5.28;;;;;;;13.99;56.07;99283.16;5022677;28;20112;-67
2021/10/25 09:25:53;;;;;;;11.38;5.78;;;;;;;14.66;54.84;99281.03;5015973;28;20459;-67
2021/10/25 09:28:25;;;;;;;9.32;6.28;;;;;;;14.03;56.34;99284.41;5034798;28;20464;-66
2021/10/25 09:30:57;;;;;;;9.18;5.38;;;;;;;14.30;55.69;99278.88;5032230;28;20025;-67
2021/10/25 09:33:25;;;;;;;10.70;5.60;;;;;;;14.66;55.05;99270.16;5032242;28;20033;-67
2021/10/25 09:35:55;;;;;;;9.95;6.13;;;;;;;14.66;55.50;99278.31;5017903;28;20105;-67
2021/10/25 09:38:30;;;;;;;11.48;6.00;;;;;;;14.87;54.34;99241.72;5014864;28;20700;-68
2021/10/25 09:46:11;;;;;;;8.02;4.88;;;;;;;17.31;48.31;99262.81;5027832;28;20036;-67
2021/10/25 09:51:23;;;;;;;9.43;5.28;;;;;;;19.14;44.69;99236.81;5013274;28;20029;-67
2021/10/25 09:53:59;;;;;;;7.35;4.80;;;;;;;19.91;42.84;99253.41;5024240;28;20029;-68
2021/10/25 09:56:31;;;;;;;9.35;5.05;;;;;;;20.49;41.63;99253.84;5025597;28;20164;-68
2021/10/25 09:59:17;;;;;;;13.27;4.82;;;;;;;22.12;38.60;99264.63;5029119;28;20104;-67
2021/10/25 10:01:44;;;;;;;6.40;4.00;;;;;;;23.56;35.79;99233.50;5033440;28;20075;-69
2021/10/25 10:04:10;;;;;;;9.05;4.22;;;;;;;23.98;34.80;99240.63;5033917;28;20101;-70
2021/10/25 10:06:36;;;;;;;8.00;4.60;;;;;;;23.36;34.61;99242.59;5034084;28;20124;-72
2021/10/25 10:09:03;;;;;;;6.07;3.67;;;;;;;25.64;32.71;99251.25;5020227;28;20387;-72
2021/10/25 10:11:29;;;;;;;8.00;3.78;;;;;;;26.30;30.86;99237.81;5028961;28;20024;-72
2021/10/25 10:13:56;;;;;;;5.32;3.08;;;;;;;26.53;29.93;99239.75;5034472;28;20116;-72
2021/10/25 10:16:22;;;;;;;6.65;3.10;;;;;;;27.53;28.95;99234.06;5033680;28;20753;-72
2021/10/25 10:19:01;;;;;;;5.07;3.42;;;;;;;28.81;26.27;99235.13;5027747;28;20391;-70
2021/10/25 10:21:28;;;;;;;5.50;2.50;;;;;;;30.23;23.62;99217.88;5021224;28;20162;-70
2021/10/25 10:24:01;;;;;;;3.92;2.72;;;;;;;27.66;26.40;99230.50;5029342;28;20450;-70
2021/10/25 10:26:32;;;;;;;4.28;2.60;;;;;;;28.32;25.58;99205.31;5012774;28;20056;-70
2021/10/25 10:29:09;;;;;;;7.35;2.90;;;;;;;26.16;28.14;99226.63;5020670;28;20039;-70
2021/10/25 10:31:35;;;;;;;4.82;2.63;;;;;;;25.53;28.86;99217.28;5026413;28;20021;-70
2021/10/25 10:34:11;;;;;;;5.57;2.72;;;;;;;25.17;29.46;99204.88;5030946;28;20514;-70
2021/10/25 10:36:36;;;;;;;5.25;3.28;;;;;;;24.82;30.00;99223.38;5027403;28;20535;-69
2021/10/25 10:39:06;;;;;;;4.10;2.80;;;;;;;22.39;33.03;99225.06;5027053;28;20143;-69
2021/10/25 10:41:41;;;;;;;7.75;3.33;;;;;;;21.37;34.99;99228.03;5025437;28;20021;-69
2021/10/25 10:44:17;;;;;;;6.07;3.58;;;;;;;20.07;37.70;99218.72;5012432;28;20041;-69
2021/10/25 10:46:52;;;;;;;5.78;3.00;;;;;;;21.57;34.57;99219.94;5014552;28;20029;-72
2021/10/25 10:49:28;;;;;;;5.50;2.83;;;;;;;23.47;31.93;99206.72;5017855;28;20033;-72
2021/10/25 10:52:25;;;;;;;5.07;2.75;;;;;;;24.36;31.49;99207.00;5010643;28;20033;-72
2021/10/25 11:00:20;;;;;;;3.10;2.20;;;;;;;25.82;27.76;99205.34;5007680;28;20084;-70
2021/10/25 11:02:54;;;;;;;3.58;2.42;;;;;;;27.26;25.93;99193.97;5013066;28;20049;-70
2021/10/25 11:05:40;;;;;;;3.38;2.15;;;;;;;27.64;26.27;99201.34;5016236;28;20064;-70
2021/10/25 11:08:12;;;;;;;3.90;2.65;;;;;;;26.33;27.21;99204.78;5023903;28;20018;-70
2021/10/25 11:10:40;;;;;;;3.13;2.38;;;;;;;26.83;27.45;99199.66;5010765;28;20029;-70
2021/10/25 11:13:16;;;;;;;3.60;2.50;;;;;;;27.47;26.16;99193.63;5016258;28;20033;-70
2021/10/25 11:15:53;;;;;;;7.68;3.17;;;;;;;25.78;28.11;99185.72;5009944;28;20037;-70
2021/10/25 11:18:24;;;;;;;4.07;2.85;;;;;;;24.52;29.79;99196.72;5013551;28;20076;-70
2021/10/25 11:20:53;;;;;;;3.88;2.70;;;;;;;23.14;31.90;99198.72;5022597;28;20033;-70
2021/10/25 11:23:18;;;;;;;4.07;2.60;;;;;;;22.12;32.86;99204.00;5012035;28;20026;-73
2021/10/25 11:25:45;;;;;;;4.63;2.80;;;;;;;21.29;34.35;99207.31;5029018;28;20535;-70
2021/10/25 11:28:20;;;;;;;3.63;2.45;;;;;;;21.58;35.14;99202.31;5029468;28;20164;-70
2021/10/25 11:30:47;;;;;;;5.20;2.72;;;;;;;23.09;32.16;99189.63;5016730;28;20747;-72
2021/10/25 11:33:16;;;;;;;4.80;2.50;;;;;;;25.37;28.79;99182.53;5011873;28;20133;-71
2021/10/25 11:35:49;;;;;;;3.20;1.85;;;;;;;26.83;26.87;99177.44;5014957;28;20057;-71
2021/10/25 11:38:15;;;;;;;5.65;2.30;;;;;;;27.61;25.22;99169.44;5012072;28;20033;-71
2021/10/25 11:40:41;;;;;;;3.95;2.10;;;;;;;27.05;25.63;99178.75;5012242;28;20057;-71
2021/10/25 11:43:06;;;;;;;6.05;2.35;;;;;;;26.10;26.96;99161.25;5010993;28;20396;-71
2021/10/25 11:45:33;;;;;;;2.95;2.20;;;;;;;27.22;25.60;99164.31;5022242;28;20025;-71
2021/10/25 11:47:58;;;;;;;4.43;2.25;;;;;;;28.04;24.79;99157.25;5009010;28;20076;-71
2021/10/25 11:50:30;;;;;;;3.08;1.88;;;;;;;28.24;24.67;99155.97;5009738;28;20029;-71
2021/10/25 11:52:59;;;;;;;5.25;2.22;;;;;;;27.47;25.31;99160.25;5009133;28;20464;-71
2021/10/25 11:55:31;;;;;;;2.00;1.67;;;;;;;26.74;25.42;99153.44;5008865;28;20025;-71
2021/10/25 11:58:00;;;;;;;8.50;2.42;;;;;;;26.76;25.60;99154.78;5020220;28;20442;-72
2021/10/25 12:00:27;;;;;;;;;;;;;;;26.29;25.21;99150.19;5029418;28;20104;-72
2021/10/25 12:03:05;;;;;;;2.35;1.55;;;;;;;26.94;25.32;99141.19;5009881;28;20476;-72
2021/10/25 12:05:31;;;;;;;3.17;1.65;;;;;;;27.76;23.67;99134.97;5009526;28;20112;-72
2021/10/25 12:07:57;;;;;;;4.38;2.00;;;;;;;27.21;24.08;99141.28;5010613;28;20535;-71
2021/10/25 12:10:25;;;;;;;3.67;1.70;;;;;;;27.91;23.39;99131.91;5024994;28;20039;-72
2021/10/25 12:12:56;;;;;;;2.45;1.60;;;;;;;27.94;23.34;99136.00;5019419;28;20040;-71
2021/10/25 12:15:24;;;;;;;2.90;1.40;;;;;;;28.30;23.77;99124.13;5023561;28;20029;-73
2021/10/25 12:17:50;;;;;;;2.33;1.60;;;;;;;28.99;22.29;99127.47;5023004;28;20037;-71
2021/10/25 12:20:28;;;;;;;3.28;1.75;;;;;;;28.68;24.13;99127.41;5012496;28;20021;-72
2021/10/25 12:23:07;;;;;;;2.17;1.48;;;;;;;29.07;22.92;99122.31;5014608;28;20458;-72
2021/10/25 12:25:34;;;;;;;3.28;1.45;;;;;;;28.59;23.03;99107.88;5029806;28;20544;-71
2021/10/25 12:28:19;;;;;;;1.65;1.23;;;;;;;29.04;22.79;99119.03;5025095;28;20030;-71
2021/10/25 12:30:52;;;;;;;2.38;1.40;;;;;;;28.61;22.94;99108.38;5011942;28;20026;-71
2021/10/25 12:33:22;;;;;;;3.22;1.55;;;;;;;29.67;21.82;99096.72;5012233;28;20108;-73
2021/10/25 12:35:49;;;;;;;2.30;1.38;;;;;;;28.40;23.24;99109.94;5031889;28;20486;-70
2021/10/25 12:38:20;;;;;;;1.60;1.20;;;;;;;28.89;22.65;99108.25;5024220;28;20029;-71
2021/10/25 12:40:49;;;;;;;3.58;1.20;;;;;;;28.81;23.34;99111.78;5029437;28;20033;-73
2021/10/25 12:43:16;;;;;;;3.08;1.20;;;;;;;29.25;22.61;99101.78;5018990;28;20553;-72
2021/10/25 12:45:55;;;;;;;3.72;1.75;;;;;;;29.05;22.44;99092.78;5028222;28;20034;-71
2021/10/25 12:48:22;;;;;;;2.20;1.20;;;;;;;28.03;23.87;99103.53;5019336;28;20422;-70
2021/10/25 12:50:50;;;;;;;3.30;1.45;;;;;;;28.99;23.15;99096.00;5013776;28;20026;-69
2021/10/25 12:53:16;;;;;;;3.95;1.15;;;;;;;28.98;22.94;99091.59;5011909;28;20099;-70
2021/10/25 12:55:54;;;;;;;1.85;1.20;;;;;;;29.41;22.40;99091.84;5020717;28;20511;-70
2021/10/25 12:58:22;;;;;;;2.10;1.40;;;;;;;28.27;23.30;99088.53;5025229;28;20036;-71
2021/10/25 13:00:48;;;;;;;3.17;1.45;;;;;;;28.23;23.37;99087.53;5018348;28;20029;-73
2021/10/25 13:03:14;;;;;;;1.85;1.20;;;;;;;25.90;26.54;99082.75;5017977;28;20030;-72
2021/10/25 13:05:43;;;;;;;2.65;1.25;;;;;;;26.93;25.31;99082.03;5015894;28;20160;-70
2021/10/25 13:08:09;;;;;;;2.42;1.20;;;;;;;25.59;26.21;99079.50;5011217;28;20045;-71
2021/10/25 13:10:38;;;;;;;3.53;1.20;;;;;;;26.06;26.97;99079.78;5027553;28;20118;-66
2021/10/25 13:13:04;;;;;;;;;;;;;;;27.82;24.36;99072.56;5018262;28;20030;-69